To NAV CANADA Home Page Login to a new session Search on AWWS site Feedback and Comments Disclaimer Vers la page française équivalente Tips FAQ What's new on the site To the Forecasts and Observations / NOTAM section To "File a Flight Plan" website Publications and other links Update of the User's profile FIC Telephone Numbers My Weather Data Folder Route Weather Data Regional Weather Data Local Weather Data To the Forecasts and Observations / NOTAM section
Request Generated 07/29/2016 at 03:58:38 UTC . Weather information available at that time is displayed.

METAR/TAF

FORT CHIPEWYAN/AB    (show WxCam)

METAR CYPY 290300Z AUTO 12005KT 9SM CLR 22/14 A2995 RMK SLP147
DENSITY ALT 1600FT=
METAR CYPY 290200Z AUTO 11007KT 9SM CLR 23/15 A2995 RMK SLP148
DENSITY ALT 1700FT=
METAR CYPY 290100Z AUTO 11006KT 9SM CLR 23/15 A2996 RMK SLP150
DENSITY ALT 1700FT=

*** REMARK        : Forecast period has ended; this was the last TAF issued
*** REMARQUE : La période de prévision est échue; ceci était le dernier TAF qui a été émis
TAF CYPY 281738Z 2818/2822 VRB03KT P6SM FEW100
RMK FCST BASED ON AUTO OBS. NXT FCST WILL BE ISSUED AT 291245Z=
Your time UTC time
Weather data provided by Environment Canada and NAV CANADA